sensor_id;sensor_type;location;lat;lon;timestamp;P1;durP1;ratioP1;P2;durP2;ratioP2
30096;SDS011;16915;51.466;3.610;2023-08-08T00:01:43;10.50;;;2.70;;
30096;SDS011;16915;51.466;3.610;2023-08-08T00:04:09;13.70;;;2.60;;
30096;SDS011;16915;51.466;3.610;2023-08-08T00:06:35;12.05;;;2.92;;
30096;SDS011;16915;51.466;3.610;2023-08-08T00:09:01;12.90;;;3.50;;
30096;SDS011;16915;51.466;3.610;2023-08-08T00:11:28;15.32;;;2.88;;
30096;SDS011;16915;51.466;3.610;2023-08-08T00:13:54;14.52;;;2.97;;
30096;SDS011;16915;51.466;3.610;2023-08-08T00:16:20;15.10;;;2.42;;
30096;SDS011;16915;51.466;3.610;2023-08-08T00:18:46;14.52;;;2.85;;
30096;SDS011;16915;51.466;3.610;2023-08-08T00:21:14;8.55;;;2.92;;
30096;SDS011;16915;51.466;3.610;2023-08-08T00:23:40;14.45;;;3.55;;
30096;SDS011;16915;51.466;3.610;2023-08-08T00:26:05;12.60;;;3.17;;
30096;SDS011;16915;51.466;3.610;2023-08-08T00:28:31;11.63;;;2.70;;
30096;SDS011;16915;51.466;3.610;2023-08-08T00:30:56;16.75;;;2.97;;
30096;SDS011;16915;51.466;3.610;2023-08-08T00:33:22;13.95;;;3.15;;
30096;SDS011;16915;51.466;3.610;2023-08-08T00:35:48;13.57;;;3.38;;
30096;SDS011;16915;51.466;3.610;2023-08-08T00:38:13;13.80;;;2.75;;
30096;SDS011;16915;51.466;3.610;2023-08-08T00:40:39;20.83;;;3.63;;
30096;SDS011;16915;51.466;3.610;2023-08-08T00:43:05;17.15;;;2.97;;
30096;SDS011;16915;51.466;3.610;2023-08-08T00:45:30;9.23;;;3.05;;
30096;SDS011;16915;51.466;3.610;2023-08-08T00:47:56;10.65;;;2.80;;
30096;SDS011;16915;51.466;3.610;2023-08-08T00:50:21;17.73;;;3.13;;
30096;SDS011;16915;51.466;3.610;2023-08-08T00:52:48;16.02;;;3.13;;
30096;SDS011;16915;51.466;3.610;2023-08-08T00:55:14;17.38;;;3.60;;
30096;SDS011;16915;51.466;3.610;2023-08-08T00:57:40;14.57;;;2.83;;
30096;SDS011;16915;51.466;3.610;2023-08-08T01:00:06;13.32;;;2.60;;
30096;SDS011;16915;51.466;3.610;2023-08-08T01:02:34;20.50;;;3.53;;
30096;SDS011;16915;51.466;3.610;2023-08-08T01:05:00;12.02;;;2.63;;
30096;SDS011;16915;51.466;3.610;2023-08-08T01:07:36;19.52;;;4.30;;
30096;SDS011;16915;51.466;3.610;2023-08-08T01:10:25;16.98;;;3.10;;
30096;SDS011;16915;51.466;3.610;2023-08-08T01:12:55;15.55;;;3.30;;
30096;SDS011;16915;51.466;3.610;2023-08-08T01:15:24;14.13;;;3.03;;
30096;SDS011;16915;51.466;3.610;2023-08-08T01:17:50;9.10;;;2.60;;
30096;SDS011;16915;51.466;3.610;2023-08-08T01:20:17;8.95;;;2.55;;
30096;SDS011;16915;51.466;3.610;2023-08-08T01:23:28;16.40;;;2.42;;
30096;SDS011;16915;51.466;3.610;2023-08-08T01:25:41;12.73;;;2.80;;
30096;SDS011;16915;51.466;3.610;2023-08-08T01:28:08;13.52;;;2.45;;
30096;SDS011;16915;51.466;3.610;2023-08-08T01:30:34;8.88;;;2.45;;
30096;SDS011;16915;51.466;3.610;2023-08-08T01:33:00;8.48;;;2.10;;
30096;SDS011;16915;51.466;3.610;2023-08-08T01:35:31;9.38;;;2.55;;
30096;SDS011;16915;51.466;3.610;2023-08-08T01:38:04;7.70;;;2.53;;
30096;SDS011;16915;51.466;3.610;2023-08-08T01:40:35;11.77;;;2.35;;
30096;SDS011;16915;51.466;3.610;2023-08-08T01:43:01;9.60;;;2.47;;
30096;SDS011;16915;51.466;3.610;2023-08-08T01:45:29;5.90;;;2.20;;
30096;SDS011;16915;51.466;3.610;2023-08-08T01:47:54;6.15;;;1.98;;
30096;SDS011;16915;51.466;3.610;2023-08-08T01:50:20;7.55;;;2.35;;
30096;SDS011;16915;51.466;3.610;2023-08-08T01:52:46;4.55;;;1.80;;
30096;SDS011;16915;51.466;3.610;2023-08-08T01:55:12;6.03;;;2.03;;
30096;SDS011;16915;51.466;3.610;2023-08-08T01:57:38;8.73;;;2.67;;
30096;SDS011;16915;51.466;3.610;2023-08-08T02:00:04;8.57;;;2.35;;
30096;SDS011;16915;51.466;3.610;2023-08-08T02:02:31;5.07;;;1.80;;
30096;SDS011;16915;51.466;3.610;2023-08-08T02:04:57;10.25;;;2.22;;
30096;SDS011;16915;51.466;3.610;2023-08-08T02:07:23;8.45;;;2.50;;
30096;SDS011;16915;51.466;3.610;2023-08-08T02:09:48;6.88;;;2.00;;
30096;SDS011;16915;51.466;3.610;2023-08-08T02:12:15;7.78;;;2.03;;
30096;SDS011;16915;51.466;3.610;2023-08-08T02:14:41;8.52;;;1.98;;
30096;SDS011;16915;51.466;3.610;2023-08-08T02:17:07;6.93;;;2.13;;
30096;SDS011;16915;51.466;3.610;2023-08-08T02:19:32;5.55;;;1.60;;
30096;SDS011;16915;51.466;3.610;2023-08-08T02:21:58;6.40;;;1.83;;
30096;SDS011;16915;51.466;3.610;2023-08-08T02:24:23;5.25;;;1.63;;
30096;SDS011;16915;51.466;3.610;2023-08-08T02:26:49;9.23;;;1.52;;
30096;SDS011;16915;51.466;3.610;2023-08-08T02:29:14;4.70;;;1.63;;
30096;SDS011;16915;51.466;3.610;2023-08-08T02:31:40;6.90;;;1.92;;
30096;SDS011;16915;51.466;3.610;2023-08-08T02:34:06;4.70;;;1.80;;
30096;SDS011;16915;51.466;3.610;2023-08-08T02:36:31;2.17;;;1.13;;
30096;SDS011;16915;51.466;3.610;2023-08-08T02:38:58;3.25;;;1.55;;
30096;SDS011;16915;51.466;3.610;2023-08-08T02:41:24;5.03;;;1.50;;
30096;SDS011;16915;51.466;3.610;2023-08-08T02:43:49;4.72;;;1.85;;
30096;SDS011;16915;51.466;3.610;2023-08-08T02:46:15;4.65;;;1.52;;
30096;SDS011;16915;51.466;3.610;2023-08-08T02:48:40;3.83;;;1.30;;
30096;SDS011;16915;51.466;3.610;2023-08-08T02:51:06;2.60;;;1.48;;
30096;SDS011;16915;51.466;3.610;2023-08-08T02:53:31;2.15;;;1.35;;
30096;SDS011;16915;51.466;3.610;2023-08-08T02:55:57;4.90;;;1.58;;
30096;SDS011;16915;51.466;3.610;2023-08-08T02:58:22;3.88;;;1.45;;
30096;SDS011;16915;51.466;3.610;2023-08-08T03:00:48;3.30;;;1.35;;
30096;SDS011;16915;51.466;3.610;2023-08-08T03:03:14;8.73;;;1.17;;
30096;SDS011;16915;51.466;3.610;2023-08-08T03:05:39;6.82;;;1.40;;
30096;SDS011;16915;51.466;3.610;2023-08-08T03:08:05;6.47;;;1.90;;
30096;SDS011;16915;51.466;3.610;2023-08-08T03:10:31;9.50;;;1.35;;
30096;SDS011;16915;51.466;3.610;2023-08-08T03:12:56;6.85;;;1.23;;
30096;SDS011;16915;51.466;3.610;2023-08-08T03:15:22;1.35;;;0.90;;
30096;SDS011;16915;51.466;3.610;2023-08-08T03:17:48;2.03;;;1.00;;
30096;SDS011;16915;51.466;3.610;2023-08-08T03:20:14;7.47;;;1.35;;
30096;SDS011;16915;51.466;3.610;2023-08-08T03:22:39;4.80;;;1.65;;
30096;SDS011;16915;51.466;3.610;2023-08-08T03:25:05;5.18;;;1.10;;
30096;SDS011;16915;51.466;3.610;2023-08-08T03:27:31;1.88;;;1.00;;
30096;SDS011;16915;51.466;3.610;2023-08-08T03:29:56;2.28;;;1.10;;
30096;SDS011;16915;51.466;3.610;2023-08-08T03:32:22;1.98;;;0.90;;
30096;SDS011;16915;51.466;3.610;2023-08-08T03:34:48;4.57;;;1.33;;
30096;SDS011;16915;51.466;3.610;2023-08-08T03:37:13;8.05;;;1.13;;
30096;SDS011;16915;51.466;3.610;2023-08-08T03:39:39;3.83;;;0.95;;
30096;SDS011;16915;51.466;3.610;2023-08-08T03:42:05;4.32;;;1.17;;
30096;SDS011;16915;51.466;3.610;2023-08-08T03:44:30;4.90;;;1.15;;
30096;SDS011;16915;51.466;3.610;2023-08-08T03:46:56;5.15;;;1.40;;
30096;SDS011;16915;51.466;3.610;2023-08-08T03:49:22;3.42;;;1.02;;
30096;SDS011;16915;51.466;3.610;2023-08-08T03:51:47;5.18;;;1.80;;
30096;SDS011;16915;51.466;3.610;2023-08-08T03:54:13;3.75;;;1.30;;
30096;SDS011;16915;51.466;3.610;2023-08-08T03:56:40;2.50;;;1.33;;
30096;SDS011;16915;51.466;3.610;2023-08-08T03:59:06;2.30;;;0.82;;
30096;SDS011;16915;51.466;3.610;2023-08-08T04:01:32;3.58;;;0.90;;
30096;SDS011;16915;51.466;3.610;2023-08-08T04:03:58;2.80;;;1.00;;
30096;SDS011;16915;51.466;3.610;2023-08-08T04:06:23;4.30;;;1.13;;
30096;SDS011;16915;51.466;3.610;2023-08-08T04:08:49;3.83;;;1.20;;
30096;SDS011;16915;51.466;3.610;2023-08-08T04:11:15;5.03;;;1.10;;
30096;SDS011;16915;51.466;3.610;2023-08-08T04:13:40;4.07;;;1.25;;
30096;SDS011;16915;51.466;3.610;2023-08-08T04:16:06;4.28;;;1.13;;
30096;SDS011;16915;51.466;3.610;2023-08-08T04:18:32;7.75;;;1.48;;
30096;SDS011;16915;51.466;3.610;2023-08-08T04:20:57;5.38;;;1.13;;
30096;SDS011;16915;51.466;3.610;2023-08-08T04:23:23;2.08;;;0.95;;
30096;SDS011;16915;51.466;3.610;2023-08-08T04:25:50;7.63;;;1.13;;
30096;SDS011;16915;51.466;3.610;2023-08-08T04:28:16;2.97;;;1.00;;
30096;SDS011;16915;51.466;3.610;2023-08-08T04:30:42;5.00;;;1.30;;
30096;SDS011;16915;51.466;3.610;2023-08-08T04:33:08;6.57;;;1.02;;
30096;SDS011;16915;51.466;3.610;2023-08-08T04:35:33;1.77;;;0.80;;
30096;SDS011;16915;51.466;3.610;2023-08-08T04:37:59;1.85;;;0.85;;
30096;SDS011;16915;51.466;3.610;2023-08-08T04:40:24;4.47;;;0.80;;
30096;SDS011;16915;51.466;3.610;2023-08-08T04:42:50;2.03;;;0.75;;
30096;SDS011;16915;51.466;3.610;2023-08-08T04:45:16;2.25;;;0.77;;
30096;SDS011;16915;51.466;3.610;2023-08-08T04:47:42;4.80;;;1.70;;
30096;SDS011;16915;51.466;3.610;2023-08-08T04:50:08;2.38;;;0.60;;
30096;SDS011;16915;51.466;3.610;2023-08-08T04:52:33;2.90;;;0.80;;
30096;SDS011;16915;51.466;3.610;2023-08-08T04:54:59;1.88;;;0.80;;
30096;SDS011;16915;51.466;3.610;2023-08-08T04:57:25;1.40;;;0.68;;
30096;SDS011;16915;51.466;3.610;2023-08-08T04:59:50;2.95;;;0.70;;
30096;SDS011;16915;51.466;3.610;2023-08-08T05:02:16;1.65;;;0.65;;
30096;SDS011;16915;51.466;3.610;2023-08-08T05:04:41;4.10;;;1.00;;
30096;SDS011;16915;51.466;3.610;2023-08-08T05:07:07;4.65;;;0.75;;
30096;SDS011;16915;51.466;3.610;2023-08-08T05:09:32;1.48;;;0.73;;
30096;SDS011;16915;51.466;3.610;2023-08-08T05:11:58;1.92;;;0.73;;
30096;SDS011;16915;51.466;3.610;2023-08-08T05:14:23;6.03;;;0.85;;
30096;SDS011;16915;51.466;3.610;2023-08-08T05:16:49;1.20;;;0.60;;
30096;SDS011;16915;51.466;3.610;2023-08-08T05:19:15;1.55;;;0.70;;
30096;SDS011;16915;51.466;3.610;2023-08-08T05:21:40;2.35;;;0.90;;
30096;SDS011;16915;51.466;3.610;2023-08-08T05:24:06;4.32;;;0.82;;
30096;SDS011;16915;51.466;3.610;2023-08-08T05:26:32;4.05;;;1.75;;
30096;SDS011;16915;51.466;3.610;2023-08-08T05:28:58;3.13;;;0.70;;
30096;SDS011;16915;51.466;3.610;2023-08-08T05:31:23;5.20;;;0.70;;
30096;SDS011;16915;51.466;3.610;2023-08-08T05:33:49;1.30;;;0.70;;
30096;SDS011;16915;51.466;3.610;2023-08-08T05:36:14;3.05;;;0.80;;
30096;SDS011;16915;51.466;3.610;2023-08-08T05:38:40;1.20;;;0.73;;
30096;SDS011;16915;51.466;3.610;2023-08-08T05:41:08;2.33;;;0.70;;
30096;SDS011;16915;51.466;3.610;2023-08-08T05:43:34;1.98;;;0.82;;
30096;SDS011;16915;51.466;3.610;2023-08-08T05:46:00;3.58;;;0.70;;
30096;SDS011;16915;51.466;3.610;2023-08-08T05:48:26;1.80;;;0.70;;
30096;SDS011;16915;51.466;3.610;2023-08-08T05:50:51;3.50;;;0.65;;
30096;SDS011;16915;51.466;3.610;2023-08-08T05:53:17;3.92;;;0.80;;
30096;SDS011;16915;51.466;3.610;2023-08-08T05:55:43;1.55;;;0.70;;
30096;SDS011;16915;51.466;3.610;2023-08-08T05:58:08;1.75;;;0.40;;
30096;SDS011;16915;51.466;3.610;2023-08-08T06:00:34;1.75;;;0.60;;
30096;SDS011;16915;51.466;3.610;2023-08-08T06:03:00;3.58;;;0.80;;
30096;SDS011;16915;51.466;3.610;2023-08-08T06:05:26;0.90;;;0.60;;
30096;SDS011;16915;51.466;3.610;2023-08-08T06:07:52;1.20;;;0.60;;
30096;SDS011;16915;51.466;3.610;2023-08-08T06:10:17;1.60;;;1.08;;
30096;SDS011;16915;51.466;3.610;2023-08-08T06:12:43;1.95;;;1.13;;
30096;SDS011;16915;51.466;3.610;2023-08-08T06:15:09;1.25;;;0.65;;
30096;SDS011;16915;51.466;3.610;2023-08-08T06:17:34;4.25;;;0.80;;
30096;SDS011;16915;51.466;3.610;2023-08-08T06:20:00;1.08;;;0.60;;
30096;SDS011;16915;51.466;3.610;2023-08-08T06:22:26;1.85;;;0.60;;
30096;SDS011;16915;51.466;3.610;2023-08-08T06:24:51;2.95;;;0.73;;
30096;SDS011;16915;51.466;3.610;2023-08-08T06:27:17;1.48;;;0.43;;
30096;SDS011;16915;51.466;3.610;2023-08-08T06:29:43;1.95;;;0.63;;
30096;SDS011;16915;51.466;3.610;2023-08-08T06:32:08;1.27;;;0.50;;
30096;SDS011;16915;51.466;3.610;2023-08-08T06:34:34;3.55;;;0.65;;
30096;SDS011;16915;51.466;3.610;2023-08-08T06:36:59;2.33;;;0.60;;
30096;SDS011;16915;51.466;3.610;2023-08-08T06:39:25;5.00;;;0.73;;
30096;SDS011;16915;51.466;3.610;2023-08-08T06:41:51;2.28;;;0.70;;
30096;SDS011;16915;51.466;3.610;2023-08-08T06:44:16;3.25;;;0.88;;
30096;SDS011;16915;51.466;3.610;2023-08-08T06:46:42;0.65;;;0.50;;
30096;SDS011;16915;51.466;3.610;2023-08-08T06:49:07;1.40;;;0.63;;
30096;SDS011;16915;51.466;3.610;2023-08-08T06:51:34;1.75;;;0.70;;
30096;SDS011;16915;51.466;3.610;2023-08-08T06:54:00;0.88;;;0.60;;
30096;SDS011;16915;51.466;3.610;2023-08-08T06:56:26;2.83;;;0.50;;
30096;SDS011;16915;51.466;3.610;2023-08-08T06:58:52;3.60;;;1.00;;
30096;SDS011;16915;51.466;3.610;2023-08-08T07:01:18;2.13;;;0.55;;
30096;SDS011;16915;51.466;3.610;2023-08-08T07:03:44;2.42;;;0.68;;
30096;SDS011;16915;51.466;3.610;2023-08-08T07:06:10;1.30;;;0.85;;
30096;SDS011;16915;51.466;3.610;2023-08-08T07:08:35;1.65;;;0.70;;
30096;SDS011;16915;51.466;3.610;2023-08-08T07:11:04;3.17;;;0.70;;
30096;SDS011;16915;51.466;3.610;2023-08-08T07:13:30;2.50;;;0.60;;
30096;SDS011;16915;51.466;3.610;2023-08-08T07:15:56;3.70;;;1.00;;
30096;SDS011;16915;51.466;3.610;2023-08-08T07:18:22;3.33;;;0.70;;
30096;SDS011;16915;51.466;3.610;2023-08-08T07:20:48;6.45;;;0.90;;
30096;SDS011;16915;51.466;3.610;2023-08-08T07:23:14;0.85;;;0.60;;
30096;SDS011;16915;51.466;3.610;2023-08-08T07:25:41;1.00;;;0.57;;
30096;SDS011;16915;51.466;3.610;2023-08-08T07:28:07;2.30;;;0.40;;
30096;SDS011;16915;51.466;3.610;2023-08-08T07:30:33;2.33;;;0.30;;
30096;SDS011;16915;51.466;3.610;2023-08-08T07:32:59;2.33;;;0.50;;
30096;SDS011;16915;51.466;3.610;2023-08-08T07:35:25;4.70;;;0.55;;
30096;SDS011;16915;51.466;3.610;2023-08-08T07:37:50;1.50;;;0.50;;
30096;SDS011;16915;51.466;3.610;2023-08-08T07:40:16;1.42;;;0.60;;
30096;SDS011;16915;51.466;3.610;2023-08-08T07:42:44;1.55;;;0.57;;
30096;SDS011;16915;51.466;3.610;2023-08-08T07:45:12;2.72;;;0.60;;
30096;SDS011;16915;51.466;3.610;2023-08-08T07:47:38;0.80;;;0.65;;
30096;SDS011;16915;51.466;3.610;2023-08-08T07:50:03;5.60;;;0.90;;
30096;SDS011;16915;51.466;3.610;2023-08-08T07:52:31;0.60;;;0.60;;
30096;SDS011;16915;51.466;3.610;2023-08-08T07:54:57;2.30;;;0.60;;
30096;SDS011;16915;51.466;3.610;2023-08-08T07:57:23;0.93;;;0.60;;
30096;SDS011;16915;51.466;3.610;2023-08-08T07:59:49;1.65;;;0.75;;
30096;SDS011;16915;51.466;3.610;2023-08-08T08:02:14;1.95;;;0.77;;
30096;SDS011;16915;51.466;3.610;2023-08-08T08:04:40;3.15;;;0.85;;
30096;SDS011;16915;51.466;3.610;2023-08-08T08:07:06;3.97;;;0.80;;
30096;SDS011;16915;51.466;3.610;2023-08-08T08:09:33;3.10;;;0.85;;
30096;SDS011;16915;51.466;3.610;2023-08-08T08:11:58;1.77;;;0.70;;
30096;SDS011;16915;51.466;3.610;2023-08-08T08:14:24;2.70;;;0.73;;
30096;SDS011;16915;51.466;3.610;2023-08-08T08:16:50;2.05;;;0.77;;
30096;SDS011;16915;51.466;3.610;2023-08-08T08:19:16;1.77;;;0.57;;
30096;SDS011;16915;51.466;3.610;2023-08-08T08:21:42;4.88;;;0.80;;
30096;SDS011;16915;51.466;3.610;2023-08-08T08:24:08;1.88;;;0.60;;
30096;SDS011;16915;51.466;3.610;2023-08-08T08:26:33;3.33;;;0.65;;
30096;SDS011;16915;51.466;3.610;2023-08-08T08:28:59;1.90;;;0.65;;
30096;SDS011;16915;51.466;3.610;2023-08-08T08:31:25;1.48;;;0.70;;
30096;SDS011;16915;51.466;3.610;2023-08-08T08:33:50;3.40;;;0.85;;
30096;SDS011;16915;51.466;3.610;2023-08-08T08:36:16;2.30;;;0.90;;
30096;SDS011;16915;51.466;3.610;2023-08-08T08:38:42;3.63;;;0.80;;
30096;SDS011;16915;51.466;3.610;2023-08-08T08:41:08;2.22;;;0.80;;
30096;SDS011;16915;51.466;3.610;2023-08-08T08:43:37;1.00;;;0.70;;
30096;SDS011;16915;51.466;3.610;2023-08-08T08:46:03;3.25;;;0.80;;
30096;SDS011;16915;51.466;3.610;2023-08-08T08:48:29;1.75;;;0.50;;
30096;SDS011;16915;51.466;3.610;2023-08-08T08:50:56;2.88;;;0.52;;
30096;SDS011;16915;51.466;3.610;2023-08-08T08:53:22;0.70;;;0.52;;
30096;SDS011;16915;51.466;3.610;2023-08-08T08:55:48;0.75;;;0.50;;
30096;SDS011;16915;51.466;3.610;2023-08-08T08:58:15;1.75;;;0.55;;
30096;SDS011;16915;51.466;3.610;2023-08-08T09:00:44;2.60;;;0.52;;
30096;SDS011;16915;51.466;3.610;2023-08-08T09:03:11;1.60;;;0.80;;
30096;SDS011;16915;51.466;3.610;2023-08-08T09:05:38;2.83;;;0.50;;
30096;SDS011;16915;51.466;3.610;2023-08-08T09:08:06;2.03;;;0.60;;
30096;SDS011;16915;51.466;3.610;2023-08-08T09:10:33;1.20;;;0.50;;
30096;SDS011;16915;51.466;3.610;2023-08-08T09:13:00;1.08;;;0.50;;
30096;SDS011;16915;51.466;3.610;2023-08-08T09:15:30;2.38;;;0.70;;
30096;SDS011;16915;51.466;3.610;2023-08-08T09:17:59;1.92;;;0.40;;
30096;SDS011;16915;51.466;3.610;2023-08-08T09:20:25;2.65;;;0.55;;
30096;SDS011;16915;51.466;3.610;2023-08-08T09:22:53;0.60;;;0.40;;
30096;SDS011;16915;51.466;3.610;2023-08-08T09:25:19;1.05;;;0.50;;
30096;SDS011;16915;51.466;3.610;2023-08-08T09:27:45;2.33;;;0.40;;
30096;SDS011;16915;51.466;3.610;2023-08-08T09:30:11;0.80;;;0.40;;
30096;SDS011;16915;51.466;3.610;2023-08-08T09:32:37;1.70;;;0.28;;
30096;SDS011;16915;51.466;3.610;2023-08-08T09:35:03;2.22;;;0.20;;
30096;SDS011;16915;51.466;3.610;2023-08-08T09:37:30;0.73;;;0.40;;
30096;SDS011;16915;51.466;3.610;2023-08-08T09:39:57;3.05;;;0.50;;
30096;SDS011;16915;51.466;3.610;2023-08-08T09:42:24;0.47;;;0.47;;
30096;SDS011;16915;51.466;3.610;2023-08-08T09:44:51;0.63;;;0.40;;
30096;SDS011;16915;51.466;3.610;2023-08-08T09:47:17;2.67;;;0.40;;
30096;SDS011;16915;51.466;3.610;2023-08-08T09:49:42;0.43;;;0.30;;
30096;SDS011;16915;51.466;3.610;2023-08-08T09:52:09;0.93;;;0.50;;
30096;SDS011;16915;51.466;3.610;2023-08-08T09:54:36;1.33;;;0.50;;
30096;SDS011;16915;51.466;3.610;2023-08-08T09:57:04;2.28;;;0.38;;
30096;SDS011;16915;51.466;3.610;2023-08-08T09:59:31;3.20;;;0.60;;
30096;SDS011;16915;51.466;3.610;2023-08-08T10:01:57;3.42;;;0.52;;
30096;SDS011;16915;51.466;3.610;2023-08-08T10:04:23;1.05;;;0.20;;
30096;SDS011;16915;51.466;3.610;2023-08-08T10:06:49;0.98;;;0.30;;
30096;SDS011;16915;51.466;3.610;2023-08-08T10:09:15;2.10;;;0.52;;
30096;SDS011;16915;51.466;3.610;2023-08-08T10:11:41;3.33;;;0.70;;
30096;SDS011;16915;51.466;3.610;2023-08-08T10:14:09;0.70;;;0.50;;
30096;SDS011;16915;51.466;3.610;2023-08-08T10:16:41;1.10;;;0.57;;
30096;SDS011;16915;51.466;3.610;2023-08-08T10:19:10;1.80;;;0.70;;
30096;SDS011;16915;51.466;3.610;2023-08-08T10:21:37;1.27;;;0.65;;
30096;SDS011;16915;51.466;3.610;2023-08-08T10:24:07;0.93;;;0.50;;
30096;SDS011;16915;51.466;3.610;2023-08-08T10:26:34;3.60;;;0.68;;
30096;SDS011;16915;51.466;3.610;2023-08-08T10:29:23;2.20;;;0.60;;
30096;SDS011;16915;51.466;3.610;2023-08-08T10:34:24;1.45;;;0.77;;
30096;SDS011;16915;51.466;3.610;2023-08-08T10:37:03;2.28;;;0.73;;
30096;SDS011;16915;51.466;3.610;2023-08-08T10:39:51;0.63;;;0.40;;
30096;SDS011;16915;51.466;3.610;2023-08-08T10:42:23;1.95;;;0.80;;
30096;SDS011;16915;51.466;3.610;2023-08-08T10:44:54;1.35;;;0.85;;
30096;SDS011;16915;51.466;3.610;2023-08-08T10:47:24;0.98;;;0.70;;
30096;SDS011;16915;51.466;3.610;2023-08-08T10:50:05;5.03;;;0.70;;
30096;SDS011;16915;51.466;3.610;2023-08-08T10:55:26;2.05;;;0.60;;
30096;SDS011;16915;51.466;3.610;2023-08-08T11:00:35;1.40;;;0.65;;
30096;SDS011;16915;51.466;3.610;2023-08-08T11:03:04;2.28;;;0.63;;
30096;SDS011;16915;51.466;3.610;2023-08-08T11:05:31;1.08;;;0.55;;
30096;SDS011;16915;51.466;3.610;2023-08-08T11:07:58;1.17;;;0.60;;
30096;SDS011;16915;51.466;3.610;2023-08-08T11:10:25;1.60;;;0.73;;
30096;SDS011;16915;51.466;3.610;2023-08-08T11:12:58;3.00;;;0.93;;
30096;SDS011;16915;51.466;3.610;2023-08-08T11:15:29;1.58;;;0.68;;
30096;SDS011;16915;51.466;3.610;2023-08-08T11:17:56;2.25;;;0.80;;
30096;SDS011;16915;51.466;3.610;2023-08-08T11:20:23;2.00;;;0.73;;
30096;SDS011;16915;51.466;3.610;2023-08-08T11:22:55;2.17;;;0.98;;
30096;SDS011;16915;51.466;3.610;2023-08-08T11:25:21;2.85;;;0.60;;
30096;SDS011;16915;51.466;3.610;2023-08-08T11:27:51;1.05;;;0.80;;
30096;SDS011;16915;51.466;3.610;2023-08-08T11:30:17;1.50;;;0.80;;
30096;SDS011;16915;51.466;3.610;2023-08-08T11:32:44;0.75;;;0.57;;
30096;SDS011;16915;51.466;3.610;2023-08-08T11:35:11;2.53;;;0.65;;
30096;SDS011;16915;51.466;3.610;2023-08-08T11:37:37;2.88;;;0.68;;
30096;SDS011;16915;51.466;3.610;2023-08-08T11:40:03;1.38;;;0.70;;
30096;SDS011;16915;51.466;3.610;2023-08-08T11:42:30;1.65;;;0.50;;
30096;SDS011;16915;51.466;3.610;2023-08-08T11:44:57;3.30;;;0.68;;
30096;SDS011;16915;51.466;3.610;2023-08-08T11:47:26;2.45;;;0.70;;
30096;SDS011;16915;51.466;3.610;2023-08-08T11:49:53;1.02;;;0.52;;
30096;SDS011;16915;51.466;3.610;2023-08-08T11:52:18;1.95;;;0.50;;
30096;SDS011;16915;51.466;3.610;2023-08-08T11:54:49;1.45;;;0.80;;
30096;SDS011;16915;51.466;3.610;2023-08-08T11:57:18;3.53;;;0.70;;
30096;SDS011;16915;51.466;3.610;2023-08-08T11:59:43;2.35;;;0.82;;
30096;SDS011;16915;51.466;3.610;2023-08-08T12:02:09;0.82;;;0.82;;
30096;SDS011;16915;51.466;3.610;2023-08-08T12:04:35;1.98;;;0.52;;
30096;SDS011;16915;51.466;3.610;2023-08-08T12:07:01;1.00;;;0.60;;
30096;SDS011;16915;51.466;3.610;2023-08-08T12:09:31;1.55;;;0.52;;
30096;SDS011;16915;51.466;3.610;2023-08-08T12:12:01;3.25;;;0.77;;
30096;SDS011;16915;51.466;3.610;2023-08-08T12:14:27;0.85;;;0.57;;
30096;SDS011;16915;51.466;3.610;2023-08-08T12:16:53;1.00;;;0.50;;
30096;SDS011;16915;51.466;3.610;2023-08-08T12:19:22;1.10;;;0.70;;
30096;SDS011;16915;51.466;3.610;2023-08-08T12:21:49;2.85;;;0.80;;
30096;SDS011;16915;51.466;3.610;2023-08-08T12:24:16;3.30;;;0.88;;
30096;SDS011;16915;51.466;3.610;2023-08-08T12:26:42;1.23;;;0.60;;
30096;SDS011;16915;51.466;3.610;2023-08-08T12:29:08;2.65;;;0.90;;
30096;SDS011;16915;51.466;3.610;2023-08-08T12:31:34;2.13;;;0.68;;
30096;SDS011;16915;51.466;3.610;2023-08-08T12:34:00;3.42;;;0.90;;
30096;SDS011;16915;51.466;3.610;2023-08-08T12:36:25;1.73;;;0.95;;
30096;SDS011;16915;51.466;3.610;2023-08-08T12:38:51;2.53;;;1.00;;
30096;SDS011;16915;51.466;3.610;2023-08-08T12:41:17;2.40;;;1.23;;
30096;SDS011;16915;51.466;3.610;2023-08-08T12:43:42;3.67;;;1.25;;
30096;SDS011;16915;51.466;3.610;2023-08-08T12:46:08;3.40;;;1.67;;
30096;SDS011;16915;51.466;3.610;2023-08-08T12:48:34;3.90;;;1.40;;
30096;SDS011;16915;51.466;3.610;2023-08-08T12:51:00;2.75;;;1.05;;
30096;SDS011;16915;51.466;3.610;2023-08-08T12:53:25;3.75;;;1.60;;
30096;SDS011;16915;51.466;3.610;2023-08-08T12:55:51;1.73;;;1.10;;
30096;SDS011;16915;51.466;3.610;2023-08-08T12:58:17;2.88;;;1.00;;
30096;SDS011;16915;51.466;3.610;2023-08-08T13:00:43;1.50;;;0.98;;
30096;SDS011;16915;51.466;3.610;2023-08-08T13:03:08;2.80;;;1.00;;
30096;SDS011;16915;51.466;3.610;2023-08-08T13:05:35;2.60;;;1.17;;
30096;SDS011;16915;51.466;3.610;2023-08-08T13:08:00;2.72;;;1.00;;
30096;SDS011;16915;51.466;3.610;2023-08-08T13:10:26;2.67;;;1.30;;
30096;SDS011;16915;51.466;3.610;2023-08-08T13:12:52;3.55;;;1.10;;
30096;SDS011;16915;51.466;3.610;2023-08-08T13:15:18;2.88;;;0.90;;
30096;SDS011;16915;51.466;3.610;2023-08-08T13:17:44;1.95;;;1.30;;
30096;SDS011;16915;51.466;3.610;2023-08-08T13:20:10;6.68;;;1.50;;
30096;SDS011;16915;51.466;3.610;2023-08-08T13:22:37;5.28;;;1.50;;
30096;SDS011;16915;51.466;3.610;2023-08-08T13:25:03;2.50;;;1.20;;
30096;SDS011;16915;51.466;3.610;2023-08-08T13:27:30;2.70;;;1.30;;
30096;SDS011;16915;51.466;3.610;2023-08-08T13:29:56;3.83;;;1.77;;
30096;SDS011;16915;51.466;3.610;2023-08-08T13:32:22;6.57;;;1.60;;
30096;SDS011;16915;51.466;3.610;2023-08-08T13:34:48;1.33;;;1.15;;
30096;SDS011;16915;51.466;3.610;2023-08-08T13:37:13;2.20;;;1.15;;
30096;SDS011;16915;51.466;3.610;2023-08-08T13:39:40;7.13;;;1.80;;
30096;SDS011;16915;51.466;3.610;2023-08-08T13:42:06;3.78;;;1.25;;
30096;SDS011;16915;51.466;3.610;2023-08-08T13:44:34;2.95;;;1.17;;
30096;SDS011;16915;51.466;3.610;2023-08-08T13:46:59;5.05;;;1.27;;
30096;SDS011;16915;51.466;3.610;2023-08-08T13:49:25;3.55;;;1.50;;
30096;SDS011;16915;51.466;3.610;2023-08-08T13:51:52;1.05;;;0.95;;
30096;SDS011;16915;51.466;3.610;2023-08-08T13:54:19;2.25;;;0.90;;
30096;SDS011;16915;51.466;3.610;2023-08-08T13:56:44;1.33;;;1.13;;
30096;SDS011;16915;51.466;3.610;2023-08-08T13:59:10;2.20;;;0.95;;
30096;SDS011;16915;51.466;3.610;2023-08-08T14:01:36;2.50;;;1.40;;
30096;SDS011;16915;51.466;3.610;2023-08-08T14:04:02;2.35;;;1.55;;
30096;SDS011;16915;51.466;3.610;2023-08-08T14:06:28;1.70;;;1.17;;
30096;SDS011;16915;51.466;3.610;2023-08-08T14:08:55;4.63;;;0.90;;
30096;SDS011;16915;51.466;3.610;2023-08-08T14:11:20;2.13;;;1.10;;
30096;SDS011;16915;51.466;3.610;2023-08-08T14:13:46;3.53;;;1.23;;
30096;SDS011;16915;51.466;3.610;2023-08-08T14:16:11;3.60;;;1.10;;
30096;SDS011;16915;51.466;3.610;2023-08-08T14:18:37;2.90;;;0.93;;
30096;SDS011;16915;51.466;3.610;2023-08-08T14:21:03;3.67;;;1.27;;
30096;SDS011;16915;51.466;3.610;2023-08-08T14:23:30;2.35;;;0.88;;
30096;SDS011;16915;51.466;3.610;2023-08-08T14:25:56;8.18;;;1.63;;
30096;SDS011;16915;51.466;3.610;2023-08-08T14:28:21;2.78;;;1.02;;
30096;SDS011;16915;51.466;3.610;2023-08-08T14:30:47;2.42;;;0.82;;
30096;SDS011;16915;51.466;3.610;2023-08-08T14:33:16;4.20;;;1.40;;
30096;SDS011;16915;51.466;3.610;2023-08-08T14:35:42;1.33;;;0.70;;
30096;SDS011;16915;51.466;3.610;2023-08-08T14:38:07;2.88;;;0.70;;
30096;SDS011;16915;51.466;3.610;2023-08-08T14:40:33;3.13;;;0.73;;
30096;SDS011;16915;51.466;3.610;2023-08-08T14:43:01;4.05;;;1.45;;
30096;SDS011;16915;51.466;3.610;2023-08-08T14:45:27;2.58;;;0.90;;
30096;SDS011;16915;51.466;3.610;2023-08-08T14:47:54;4.22;;;0.77;;
30096;SDS011;16915;51.466;3.610;2023-08-08T14:50:20;2.08;;;0.77;;